Time;durP1;ratioP1;P1;durP2;ratioP2;P2;SDS_P1;SDS_P2;PMS_P1;PMS_P2;Temp;Humidity;BMP_temperature;BMP_pressure;BME280_temperature;BME280_humidity;BME280_pressure;Samples;Min_cycle;Max_cycle;Signal;HPM_P1;HPM_P2
2023/05/18 00:01:47;;;;;;;11.10;7.70;;;14.90;99.90;;;;;;5095623;28;20424;-84
2023/05/18 00:04:13;;;;;;;12.57;8.20;;;14.90;99.90;;;;;;5114210;28;20829;-82
2023/05/18 00:06:38;;;;;;;11.63;8.00;;;14.80;99.90;;;;;;5113904;28;20230;-83
2023/05/18 00:09:04;;;;;;;9.70;7.97;;;14.80;99.90;;;;;;5113965;28;20452;-80
2023/05/18 00:11:30;;;;;;;9.23;8.23;;;14.80;99.90;;;;;;5129696;28;20290;-80
2023/05/18 00:13:56;;;;;;;8.50;7.70;;;14.80;99.90;;;;;;5113753;28;20176;-80
2023/05/18 00:16:21;;;;;;;10.60;7.93;;;14.80;99.90;;;;;;5113808;28;20267;-82
2023/05/18 00:18:47;;;;;;;9.30;8.30;;;14.70;99.90;;;;;;5113743;28;20302;-81
2023/05/18 00:21:15;;;;;;;10.77;8.23;;;14.70;99.90;;;;;;5113825;28;20191;-84
2023/05/18 00:23:41;;;;;;;10.13;9.10;;;14.60;99.90;;;;;;5129651;28;20309;-80
2023/05/18 00:26:07;;;;;;;8.20;7.40;;;14.70;99.90;;;;;;5095398;28;21011;-80
2023/05/18 00:28:33;;;;;;;9.60;8.03;;;14.70;99.90;;;;;;5113886;28;20471;-84
2023/05/18 00:30:59;;;;;;;13.90;9.40;;;14.70;99.90;;;;;;5129499;28;20245;-84
2023/05/18 00:33:24;;;;;;;11.43;10.23;;;14.60;99.90;;;;;;5129401;28;20208;-79
2023/05/18 00:35:50;;;;;;;9.60;8.60;;;14.60;99.90;;;;;;5113486;28;20513;-80
2023/05/18 00:38:16;;;;;;;10.77;8.83;;;14.70;99.90;;;;;;5095815;28;20210;-84
2023/05/18 00:40:42;;;;;;;13.33;10.57;;;14.70;99.90;;;;;;5130705;28;20208;-83
2023/05/18 00:43:08;;;;;;;10.63;9.53;;;14.70;99.90;;;;;;5113571;28;20400;-80
2023/05/18 00:45:34;;;;;;;11.93;10.53;;;14.70;99.90;;;;;;5113474;28;20440;-80
2023/05/18 00:48:00;;;;;;;13.70;9.50;;;14.60;99.90;;;;;;5095229;28;20465;-80
2023/05/18 00:50:25;;;;;;;16.83;9.63;;;14.60;99.90;;;;;;5095364;28;20561;-80
2023/05/18 00:52:51;;;;;;;10.93;9.67;;;14.60;99.90;;;;;;5130204;27;20218;-82
2023/05/18 00:55:17;;;;;;;13.97;9.60;;;14.70;99.90;;;;;;5117506;28;20571;-84
2023/05/18 00:57:44;;;;;;;11.20;10.10;;;14.60;99.90;;;;;;5132859;27;20199;-80
2023/05/18 01:00:12;;;;;;;11.97;10.67;;;14.60;99.90;;;;;;5116921;28;20701;-80
2023/05/18 01:02:44;;;;;;;11.10;9.30;;;14.60;99.90;;;;;;5098822;28;20391;-84
2023/05/18 01:05:10;;;;;;;11.33;9.90;;;14.60;99.90;;;;;;5117401;28;20463;-83
2023/05/18 01:07:38;;;;;;;11.90;9.80;;;14.60;99.90;;;;;;5116936;28;20507;-80
2023/05/18 01:10:04;;;;;;;12.70;9.80;;;14.70;99.90;;;;;;5117135;28;20940;-79
2023/05/18 01:13:01;;;;;;;16.20;9.90;;;14.80;99.90;;;;;;5132761;27;20416;-81
2023/05/18 01:15:36;;;;;;;12.10;9.60;;;14.80;99.90;;;;;;5117971;28;20800;-80
2023/05/18 01:18:22;;;;;;;9.80;8.80;;;14.90;99.90;;;;;;5099157;28;20466;-84
2023/05/18 01:20:58;;;;;;;11.57;9.70;;;14.90;99.90;;;;;;5099714;28;20815;-84
2023/05/18 01:23:59;;;;;;;13.17;10.40;;;14.90;99.90;;;;;;5117350;28;20934;-84
2023/05/18 01:26:31;;;;;;;12.73;9.33;;;14.90;99.90;;;;;;5098552;28;20446;-87
2023/05/18 01:28:59;;;;;;;11.50;9.90;;;14.80;99.90;;;;;;5099121;28;20408;-82
2023/05/18 01:31:26;;;;;;;11.30;10.13;;;14.80;99.90;;;;;;5118917;28;20420;-85
2023/05/18 01:33:52;;;;;;;11.33;9.90;;;14.90;99.90;;;;;;5098375;28;20408;-84
2023/05/18 01:36:17;;;;;;;11.37;10.20;;;14.90;99.90;;;;;;5132236;27;20489;-80
2023/05/18 01:38:44;;;;;;;12.30;9.80;;;14.80;99.90;;;;;;5116362;28;20464;-84
2023/05/18 01:41:26;;;;;;;10.80;9.70;;;14.90;99.90;;;;;;5132133;27;20282;-84
2023/05/18 01:44:16;;;;;;;11.17;9.97;;;15.00;99.90;;;;;;5098016;28;20424;-85
2023/05/18 01:47:10;;;;;;;13.47;9.70;;;15.00;99.90;;;;;;5097914;28;20812;-85
2023/05/18 01:50:12;;;;;;;11.40;10.03;;;14.90;99.90;;;;;;5116285;28;20432;-84
2023/05/18 01:53:18;;;;;;;9.90;9.00;;;14.80;99.90;;;;;;5102187;28;20561;-81
2023/05/18 01:55:47;;;;;;;11.50;9.60;;;14.80;99.90;;;;;;5113707;28;20960;-80
2023/05/18 01:58:14;;;;;;;39.30;19.87;;;14.80;99.90;;;;;;5097595;28;20832;-83
2023/05/18 02:00:40;;;;;;;13.37;9.83;;;14.70;99.90;;;;;;5097794;28;20440;-83
2023/05/18 02:03:06;;;;;;;11.13;10.00;;;14.70;99.90;;;;;;5097387;28;20916;-83
2023/05/18 02:05:31;;;;;;;13.47;10.63;;;14.60;99.90;;;;;;5116044;28;20440;-83
2023/05/18 02:07:57;;;;;;;12.30;9.90;;;14.50;99.90;;;;;;5097495;28;20247;-80
2023/05/18 02:10:23;;;;;;;12.97;9.70;;;14.40;99.90;;;;;;5097494;28;20202;-84
2023/05/18 02:12:51;;;;;;;15.20;10.83;;;14.40;99.90;;;;;;5131532;27;20554;-80
2023/05/18 02:15:18;;;;;;;16.77;11.20;;;14.50;99.90;;;;;;5115611;28;20566;-83
2023/05/18 02:17:43;;;;;;;11.20;10.00;;;14.50;99.90;;;;;;5097319;28;20897;-80
2023/05/18 02:20:09;;;;;;;13.93;10.50;;;14.50;99.90;;;;;;5115872;28;20542;-84
2023/05/18 02:22:35;;;;;;;13.13;11.23;;;14.50;99.90;;;;;;5115459;28;20172;-83
2023/05/18 02:25:03;;;;;;;15.23;11.50;;;14.50;99.90;;;;;;5115696;28;20432;-84
2023/05/18 02:27:29;;;;;;;12.03;10.50;;;14.60;99.90;;;;;;5097130;28;20411;-80
2023/05/18 02:29:55;;;;;;;12.30;9.80;;;14.70;99.90;;;;;;5097077;28;20444;-80
2023/05/18 02:32:22;;;;;;;12.53;10.13;;;14.80;99.90;;;;;;5097076;28;20172;-81
2023/05/18 02:34:51;;;;;;;13.30;9.60;;;14.80;99.90;;;;;;5097044;28;20395;-85
2023/05/18 02:37:17;;;;;;;12.23;9.80;;;14.90;99.90;;;;;;5096754;28;20417;-80
2023/05/18 02:39:43;;;;;;;13.47;10.00;;;14.80;99.90;;;;;;5115401;28;20428;-81
2023/05/18 02:42:09;;;;;;;13.50;10.83;;;14.70;99.90;;;;;;5096792;28;20259;-80
2023/05/18 02:44:34;;;;;;;11.67;10.10;;;14.80;99.90;;;;;;5114881;28;20761;-80
2023/05/18 02:47:00;;;;;;;13.23;10.90;;;14.80;99.90;;;;;;5114972;28;20565;-80
2023/05/18 02:49:26;;;;;;;14.17;10.77;;;14.70;99.90;;;;;;5096763;28;20278;-84
2023/05/18 02:51:51;;;;;;;13.73;10.80;;;14.70;99.90;;;;;;5114856;28;20183;-80
2023/05/18 02:54:17;;;;;;;12.80;11.27;;;14.70;99.90;;;;;;5096589;28;20431;-85
2023/05/18 02:56:43;;;;;;;11.30;9.90;;;14.70;99.90;;;;;;5114830;28;20183;-85
2023/05/18 02:59:09;;;;;;;13.30;11.20;;;14.90;99.90;;;;;;5130562;27;20217;-84
2023/05/18 03:01:36;;;;;;;16.93;11.60;;;14.90;99.90;;;;;;5096431;28;20195;-80
2023/05/18 03:04:02;;;;;;;11.70;10.20;;;14.90;99.90;;;;;;5114749;28;20573;-83
2023/05/18 03:06:29;;;;;;;12.73;10.10;;;15.00;99.90;;;;;;5096304;28;20460;-85
2023/05/18 03:08:55;;;;;;;12.83;10.63;;;15.00;99.90;;;;;;5096355;28;20435;-80
2023/05/18 03:11:21;;;;;;;14.00;10.40;;;15.20;99.90;;;;;;5114548;28;20783;-80
2023/05/18 03:13:47;;;;;;;11.57;10.30;;;15.30;99.90;;;;;;5114637;28;20494;-84
2023/05/18 03:16:14;;;;;;;11.70;9.97;;;15.40;99.90;;;;;;5092025;28;20543;-84
2023/05/18 03:18:40;;;;;;;10.47;9.00;;;15.50;99.90;;;;;;5094086;28;20977;-85
2023/05/18 03:21:06;;;;;;;10.83;8.97;;;15.50;99.90;;;;;;5094705;28;20417;-84
2023/05/18 03:23:33;;;;;;;11.70;8.87;;;15.60;99.90;;;;;;5092745;28;20401;-80
2023/05/18 03:26:02;;;;;;;9.80;8.80;;;15.60;99.90;;;;;;5092629;28;20926;-81
2023/05/18 03:28:29;;;;;;;11.43;10.23;;;15.70;99.90;;;;;;5092655;28;20416;-84
2023/05/18 03:30:54;;;;;;;10.80;9.00;;;15.70;99.90;;;;;;5092494;28;20480;-81
2023/05/18 03:33:20;;;;;;;10.00;8.77;;;15.70;99.90;;;;;;5092524;28;20442;-83
2023/05/18 03:35:47;;;;;;;11.17;8.53;;;15.70;99.90;;;;;;5094264;28;20561;-83
2023/05/18 03:38:12;;;;;;;9.57;8.63;;;15.80;99.90;;;;;;5093757;28;21000;-84
2023/05/18 03:40:38;;;;;;;10.73;7.93;;;15.70;99.90;;;;;;5094145;28;20535;-80
2023/05/18 03:43:04;;;;;;;17.83;9.50;;;15.80;99.90;;;;;;5092491;28;20637;-82
2023/05/18 03:45:30;;;;;;;9.83;7.63;;;15.80;99.90;;;;;;5092305;28;20666;-80
2023/05/18 03:47:56;;;;;;;8.60;7.80;;;15.90;99.90;;;;;;5093695;28;20424;-83
2023/05/18 03:50:22;;;;;;;8.77;7.87;;;15.90;99.90;;;;;;5092232;28;20453;-84
2023/05/18 03:52:47;;;;;;;10.60;7.67;;;15.90;99.90;;;;;;5092322;28;20417;-80
2023/05/18 03:55:13;;;;;;;13.00;7.67;;;16.00;99.90;;;;;;5093935;28;20200;-83
2023/05/18 03:57:38;;;;;;;68.07;35.87;;;16.00;99.90;;;;;;5092375;28;20610;-80
2023/05/18 04:00:10;;;;;;;12.40;9.70;;;16.10;99.90;;;;;;5094025;28;20199;-80
2023/05/18 04:02:36;;;;;;;8.93;6.50;;;16.10;99.90;;;;;;5093423;28;20659;-80
2023/05/18 04:05:02;;;;;;;7.77;6.30;;;16.10;99.90;;;;;;5093561;28;20453;-80
2023/05/18 04:07:27;;;;;;;6.40;5.20;;;16.10;99.90;;;;;;5093435;28;20625;-80
2023/05/18 04:09:55;;;;;;;6.60;6.00;;;16.20;99.90;;;;;;5092913;28;20669;-80
2023/05/18 04:12:21;;;;;;;6.73;5.87;;;16.20;99.90;;;;;;5126299;28;20181;-80
2023/05/18 04:14:49;;;;;;;9.00;5.53;;;16.30;99.90;;;;;;5093436;28;20750;-83
2023/05/18 04:17:21;;;;;;;4.93;4.40;;;16.30;99.90;;;;;;5113606;28;20176;-84
2023/05/18 04:19:48;;;;;;;5.43;4.87;;;16.40;99.90;;;;;;5113342;28;20476;-80
2023/05/18 04:22:15;;;;;;;5.90;5.17;;;16.40;99.90;;;;;;5112701;28;20401;-79
2023/05/18 04:24:41;;;;;;;7.00;4.50;;;16.40;99.90;;;;;;5094983;28;20514;-80
2023/05/18 04:27:07;;;;;;;3.60;3.30;;;16.40;99.90;;;;;;5114948;28;20808;-81
2023/05/18 04:29:38;;;;;;;4.03;3.20;;;16.40;99.90;;;;;;5116828;28;20432;-85
2023/05/18 04:32:06;;;;;;;4.90;4.23;;;16.40;99.90;;;;;;5094045;28;20427;-85
2023/05/18 04:34:34;;;;;;;4.03;3.63;;;16.40;99.90;;;;;;5117119;28;20514;-85
2023/05/18 04:37:00;;;;;;;3.40;3.10;;;16.40;99.90;;;;;;5117391;28;20750;-85
2023/05/18 04:39:26;;;;;;;5.80;2.93;;;16.40;99.90;;;;;;5117319;28;20479;-84
2023/05/18 04:41:58;;;;;;;4.80;2.93;;;16.40;99.90;;;;;;5095919;28;20455;-81
2023/05/18 04:44:27;;;;;;;4.90;3.47;;;16.50;99.90;;;;;;5096796;28;20229;-84
2023/05/18 04:46:53;;;;;;;4.00;3.60;;;16.50;99.90;;;;;;5096554;28;20851;-80
2023/05/18 04:49:24;;;;;;;4.17;3.30;;;16.40;99.90;;;;;;5115407;28;20519;-87
2023/05/18 04:51:54;;;;;;;3.10;2.80;;;16.50;99.90;;;;;;5095033;28;20463;-84
2023/05/18 04:54:29;;;;;;;5.43;3.40;;;16.50;99.90;;;;;;5076465;28;20425;-84
2023/05/18 04:56:55;;;;;;;3.17;2.83;;;16.50;99.90;;;;;;5113148;28;20435;-80
2023/05/18 04:59:25;;;;;;;2.87;2.67;;;16.50;99.90;;;;;;5097515;28;21052;-80
2023/05/18 05:01:54;;;;;;;3.70;2.87;;;16.60;99.90;;;;;;5116677;28;20484;-81
2023/05/18 05:04:20;;;;;;;3.03;2.73;;;16.60;99.90;;;;;;5098676;28;20443;-85
2023/05/18 05:06:46;;;;;;;3.40;3.10;;;16.50;99.90;;;;;;5116784;28;20428;-80
2023/05/18 05:09:13;;;;;;;3.40;3.10;;;16.60;99.90;;;;;;5116554;28;20501;-84
2023/05/18 05:11:39;;;;;;;4.13;3.13;;;16.60;99.90;;;;;;5098296;28;20218;-84
2023/05/18 05:14:05;;;;;;;5.57;3.00;;;16.60;99.90;;;;;;5112268;28;20471;-84
2023/05/18 05:16:31;;;;;;;2.90;2.57;;;16.60;99.90;;;;;;5113328;28;20995;-85
2023/05/18 05:18:57;;;;;;;3.60;3.20;;;16.60;99.90;;;;;;5115835;28;20563;-84
2023/05/18 05:21:22;;;;;;;5.87;3.60;;;16.60;99.90;;;;;;5096689;28;20213;-80
2023/05/18 05:23:48;;;;;;;3.77;2.87;;;16.50;99.90;;;;;;5096099;28;20232;-84
2023/05/18 05:26:13;;;;;;;4.57;3.37;;;16.30;99.90;;;;;;5096450;28;20671;-80
2023/05/18 05:28:39;;;;;;;3.10;2.83;;;16.40;99.90;;;;;;5091906;28;20527;-80
2023/05/18 05:31:05;;;;;;;4.47;2.93;;;16.40;99.90;;;;;;5094697;28;20206;-80
2023/05/18 05:33:31;;;;;;;4.30;3.30;;;16.30;99.90;;;;;;5111960;28;20416;-84
2023/05/18 05:35:57;;;;;;;4.70;3.70;;;16.20;99.90;;;;;;5106159;28;20195;-80
2023/05/18 05:38:23;;;;;;;4.50;4.10;;;16.20;99.90;;;;;;5094029;28;20452;-80
2023/05/18 05:40:48;;;;;;;8.13;3.30;;;16.30;99.90;;;;;;5106145;27;20731;-84
2023/05/18 05:43:14;;;;;;;2.83;2.47;;;16.30;99.90;;;;;;5101889;28;20205;-80
2023/05/18 05:45:41;;;;;;;3.67;3.07;;;16.10;99.90;;;;;;5093806;28;20211;-80
2023/05/18 05:48:07;;;;;;;5.90;2.33;;;16.00;99.90;;;;;;5108031;28;20183;-80
2023/05/18 05:50:33;;;;;;;2.63;2.20;;;16.00;99.90;;;;;;5108962;27;20448;-83
2023/05/18 05:52:58;;;;;;;5.23;4.13;;;16.00;99.90;;;;;;5092997;27;20184;-80
2023/05/18 05:55:25;;;;;;;4.07;3.47;;;16.10;99.90;;;;;;5092282;28;20850;-84
2023/05/18 05:57:50;;;;;;;2.83;2.63;;;16.10;99.90;;;;;;5093958;28;20257;-81
2023/05/18 06:00:16;;;;;;;2.40;2.20;;;16.20;99.90;;;;;;5093955;28;20979;-80
2023/05/18 06:02:42;;;;;;;4.23;2.50;;;16.10;99.90;;;;;;5110989;28;20553;-81
2023/05/18 06:05:08;;;;;;;2.30;2.10;;;16.10;99.90;;;;;;5110926;28;20448;-81
2023/05/18 06:07:34;;;;;;;2.87;2.57;;;16.10;99.90;;;;;;5095417;28;20222;-81
2023/05/18 06:10:00;;;;;;;3.60;2.50;;;16.10;99.90;;;;;;5114387;28;20488;-81
2023/05/18 06:12:26;;;;;;;2.50;2.30;;;16.10;99.90;;;;;;5111592;28;20832;-80
2023/05/18 06:14:56;;;;;;;2.80;2.20;;;16.10;99.90;;;;;;5090140;28;20436;-80
2023/05/18 06:17:26;;;;;;;4.10;3.57;;;16.10;99.90;;;;;;5094557;28;20732;-84
2023/05/18 06:19:52;;;;;;;3.13;2.77;;;16.10;99.90;;;;;;5116210;27;20499;-84
2023/05/18 06:22:18;;;;;;;3.50;3.20;;;16.00;99.90;;;;;;5096803;28;20952;-84
2023/05/18 06:24:43;;;;;;;2.80;2.60;;;16.10;99.90;;;;;;5091940;28;20430;-85
2023/05/18 06:27:10;;;;;;;3.20;2.80;;;16.10;99.90;;;;;;5095777;28;20581;-83
2023/05/18 06:29:36;;;;;;;3.30;2.53;;;16.10;99.90;;;;;;5121330;27;20176;-80
2023/05/18 06:32:01;;;;;;;3.30;3.00;;;16.10;99.90;;;;;;5100567;28;20505;-83
2023/05/18 06:34:27;;;;;;;3.30;3.10;;;16.10;99.90;;;;;;5091910;28;20192;-80
2023/05/18 06:36:53;;;;;;;3.10;2.90;;;16.00;99.90;;;;;;5094108;28;20882;-84
2023/05/18 06:39:19;;;;;;;6.07;3.10;;;16.10;99.90;;;;;;5092930;28;20207;-84
2023/05/18 06:41:45;;;;;;;3.03;2.83;;;16.00;99.90;;;;;;5112081;28;20203;-84
2023/05/18 06:44:11;;;;;;;2.83;2.63;;;16.00;99.90;;;;;;5109188;28;20602;-86
2023/05/18 06:46:37;;;;;;;3.07;2.87;;;16.00;99.90;;;;;;5109306;28;20940;-83
2023/05/18 06:49:03;;;;;;;3.33;3.03;;;16.10;99.90;;;;;;5091561;28;20398;-80
2023/05/18 06:51:30;;;;;;;3.43;2.90;;;16.00;99.90;;;;;;5087331;28;20468;-79
2023/05/18 06:53:56;;;;;;;2.87;2.67;;;16.10;99.90;;;;;;5109153;28;20501;-81
2023/05/18 06:56:21;;;;;;;4.50;3.30;;;16.10;99.90;;;;;;5107107;28;20475;-84
2023/05/18 06:58:47;;;;;;;3.80;3.47;;;16.10;99.90;;;;;;5090303;28;20891;-80
2023/05/18 07:01:14;;;;;;;3.40;3.10;;;16.20;99.90;;;;;;5109138;28;20463;-85
2023/05/18 07:03:39;;;;;;;6.63;3.50;;;16.10;99.90;;;;;;5093660;28;20512;-84
2023/05/18 07:06:06;;;;;;;4.57;3.60;;;16.00;99.90;;;;;;5093499;28;20543;-85
2023/05/18 07:08:32;;;;;;;4.10;3.80;;;16.00;99.90;;;;;;5108658;28;20180;-84
2023/05/18 07:11:01;;;;;;;4.23;3.83;;;16.10;99.90;;;;;;5112020;27;20512;-80
2023/05/18 07:13:26;;;;;;;3.80;3.47;;;16.20;99.90;;;;;;5110782;28;20809;-85
2023/05/18 07:15:52;;;;;;;4.30;3.90;;;16.10;99.90;;;;;;5108211;28;20568;-83
2023/05/18 07:18:17;;;;;;;4.10;3.60;;;16.20;99.90;;;;;;5109484;28;20276;-80
2023/05/18 07:20:44;;;;;;;3.60;3.30;;;16.20;99.90;;;;;;5108139;28;20255;-85
2023/05/18 07:23:10;;;;;;;3.57;3.30;;;16.20;99.90;;;;;;5103454;28;20474;-83
2023/05/18 07:25:35;;;;;;;4.47;3.90;;;16.20;99.90;;;;;;5087079;27;20207;-80
2023/05/18 07:28:01;;;;;;;4.60;3.47;;;16.20;99.90;;;;;;5103201;28;20180;-80
2023/05/18 07:30:27;;;;;;;4.30;3.90;;;16.10;99.90;;;;;;5091982;28;20561;-85
2023/05/18 07:32:55;;;;;;;4.37;3.97;;;16.20;99.90;;;;;;5090485;28;20179;-80
2023/05/18 07:35:21;;;;;;;4.03;3.33;;;16.10;99.90;;;;;;5090844;28;20438;-80
2023/05/18 07:37:47;;;;;;;4.10;3.70;;;16.10;99.90;;;;;;5106036;28;20922;-85
2023/05/18 07:40:12;;;;;;;4.80;4.17;;;16.10;99.90;;;;;;5083038;28;20451;-85
2023/05/18 07:42:39;;;;;;;4.80;4.40;;;16.10;99.90;;;;;;5106293;28;20191;-82
2023/05/18 07:45:06;;;;;;;4.63;4.10;;;16.20;99.90;;;;;;5090623;28;20733;-86
2023/05/18 07:47:32;;;;;;;8.57;4.40;;;16.20;99.90;;;;;;5090590;28;20436;-85
2023/05/18 07:49:58;;;;;;;3.97;3.50;;;16.30;99.90;;;;;;5105079;28;20514;-80
2023/05/18 07:52:23;;;;;;;3.97;3.67;;;16.30;99.90;;;;;;5088111;28;20428;-85
2023/05/18 07:54:49;;;;;;;4.30;3.30;;;16.40;99.90;;;;;;5097533;28;20180;-85
2023/05/18 07:57:15;;;;;;;4.63;3.90;;;16.30;99.90;;;;;;5085099;28;20274;-85
2023/05/18 07:59:41;;;;;;;3.70;3.40;;;16.30;99.90;;;;;;5089119;28;20513;-86
2023/05/18 08:02:07;;;;;;;3.80;3.40;;;16.30;99.90;;;;;;5089338;28;20179;-81
2023/05/18 08:04:32;;;;;;;3.63;3.33;;;16.30;99.90;;;;;;5097469;28;20529;-81
2023/05/18 08:06:59;;;;;;;3.30;3.00;;;16.30;99.90;;;;;;5095754;28;20559;-86
2023/05/18 08:09:25;;;;;;;3.10;2.80;;;16.40;99.90;;;;;;5114496;28;20185;-86
2023/05/18 08:11:52;;;;;;;3.53;3.23;;;16.40;99.90;;;;;;5112778;28;20926;-86
2023/05/18 08:14:18;;;;;;;3.10;2.90;;;16.40;99.90;;;;;;5103791;28;20515;-81
2023/05/18 08:16:44;;;;;;;42.30;27.27;;;16.40;99.90;;;;;;5111592;27;21052;-85
2023/05/18 08:19:09;;;;;;;12.57;6.83;;;16.40;99.90;;;;;;5112966;27;20467;-85
2023/05/18 08:21:35;;;;;;;6.90;4.37;;;16.40;99.90;;;;;;5120600;27;20884;-81
2023/05/18 08:24:02;;;;;;;3.63;2.63;;;16.40;99.90;;;;;;5093534;27;20172;-85
2023/05/18 08:26:28;;;;;;;2.60;2.13;;;16.40;99.90;;;;;;5093159;28;20743;-86
2023/05/18 08:28:54;;;;;;;3.10;2.90;;;16.50;99.90;;;;;;5091754;28;20412;-86
2023/05/18 08:31:20;;;;;;;2.67;2.47;;;16.50;99.90;;;;;;5094058;28;20452;-86
2023/05/18 08:33:47;;;;;;;2.73;2.53;;;16.40;99.90;;;;;;5092014;28;20424;-81
2023/05/18 08:36:13;;;;;;;4.57;3.47;;;16.40;99.90;;;;;;5119050;27;20439;-80
2023/05/18 08:38:38;;;;;;;3.70;3.33;;;16.40;99.90;;;;;;5097727;28;20471;-81
2023/05/18 08:41:07;;;;;;;4.23;2.90;;;16.50;99.90;;;;;;5114081;28;20447;-81
2023/05/18 08:43:37;;;;;;;3.53;3.20;;;16.60;99.90;;;;;;5116226;27;20643;-87
2023/05/18 08:46:39;;;;;;;3.33;2.97;;;16.60;99.90;;;;;;5102584;27;20461;-86
2023/05/18 08:49:07;;;;;;;3.47;3.20;;;16.60;99.90;;;;;;5098710;27;20515;-86
2023/05/18 08:51:35;;;;;;;4.70;4.30;;;16.60;99.90;;;;;;5114035;28;20575;-80
2023/05/18 08:54:02;;;;;;;4.80;3.80;;;16.70;99.90;;;;;;5120378;27;20423;-81
2023/05/18 08:56:31;;;;;;;4.67;4.17;;;16.70;99.90;;;;;;5095627;28;20467;-81
2023/05/18 08:58:57;;;;;;;3.50;3.23;;;16.70;99.90;;;;;;5113914;28;20459;-87
2023/05/18 09:01:27;;;;;;;3.90;3.50;;;16.70;99.90;;;;;;5096221;28;20571;-81
2023/05/18 09:03:54;;;;;;;3.60;3.20;;;16.80;99.90;;;;;;5112900;27;20419;-86
2023/05/18 09:06:23;;;;;;;3.37;3.17;;;16.80;99.90;;;;;;5128974;27;20459;-86
2023/05/18 09:08:51;;;;;;;3.53;3.23;;;16.80;99.90;;;;;;5095092;28;20416;-86
2023/05/18 09:11:17;;;;;;;5.60;3.50;;;16.80;99.90;;;;;;5114952;28;20448;-86
2023/05/18 09:13:43;;;;;;;4.33;2.83;;;16.80;99.90;;;;;;5097412;28;20470;-81
2023/05/18 09:16:09;;;;;;;4.07;3.67;;;16.80;99.90;;;;;;5093109;28;20476;-80
2023/05/18 09:18:35;;;;;;;3.43;3.13;;;16.90;99.90;;;;;;5093678;28;20547;-81
2023/05/18 09:21:01;;;;;;;2.83;2.63;;;16.90;99.90;;;;;;5087985;28;20735;-81
2023/05/18 09:23:27;;;;;;;3.10;2.90;;;16.90;99.90;;;;;;5088150;28;20750;-84
2023/05/18 09:25:53;;;;;;;3.20;2.90;;;16.90;99.90;;;;;;5090435;28;20196;-82
2023/05/18 09:28:48;;;;;;;3.80;3.50;;;16.90;99.90;;;;;;5085760;28;20482;-85
2023/05/18 09:31:17;;;;;;;3.30;2.93;;;16.80;99.90;;;;;;5083554;28;21048;-85
2023/05/18 09:33:45;;;;;;;4.93;3.03;;;16.80;99.90;;;;;;5086549;28;20429;-82
2023/05/18 09:36:11;;;;;;;3.13;2.93;;;16.90;99.90;;;;;;5090922;28;20539;-88
2023/05/18 09:38:39;;;;;;;3.23;2.93;;;17.00;99.90;;;;;;5092616;28;20571;-83
2023/05/18 09:41:31;;;;;;;3.00;2.70;;;17.00;99.90;;;;;;5096942;28;20521;-89
2023/05/18 09:43:56;;;;;;;2.77;2.57;;;17.10;99.90;;;;;;5098716;28;20892;-87
2023/05/18 09:46:22;;;;;;;5.03;4.53;;;17.00;99.90;;;;;;5089320;28;20540;-82
2023/05/18 09:48:51;;;;;;;12.10;9.40;;;17.10;99.90;;;;;;5088997;28;20184;-86
2023/05/18 09:51:17;;;;;;;3.63;2.93;;;17.10;99.90;;;;;;5089464;28;20205;-88
2023/05/18 09:53:54;;;;;;;2.83;2.63;;;17.10;99.90;;;;;;5091407;28;20421;-81
2023/05/18 09:56:22;;;;;;;3.17;2.97;;;17.20;99.90;;;;;;5093669;28;20540;-84
2023/05/18 09:58:47;;;;;;;3.47;2.80;;;17.20;99.90;;;;;;5093192;28;20452;-83
2023/05/18 10:01:13;;;;;;;2.40;2.30;;;17.20;99.90;;;;;;5092041;28;20475;-87
2023/05/18 10:03:39;;;;;;;2.90;2.70;;;17.20;99.90;;;;;;5089079;28;20190;-83
2023/05/18 10:06:07;;;;;;;2.90;2.70;;;17.10;99.90;;;;;;5087945;28;20212;-86
2023/05/18 10:08:33;;;;;;;4.17;3.87;;;17.20;99.90;;;;;;5086241;28;20839;-82
2023/05/18 10:11:00;;;;;;;3.50;3.23;;;17.30;99.90;;;;;;5091652;28;20921;-81
2023/05/18 10:13:27;;;;;;;3.20;3.00;;;17.40;99.90;;;;;;5090690;28;20401;-87
2023/05/18 10:16:06;;;;;;;2.80;2.60;;;17.40;99.90;;;;;;5088258;28;20485;-82
2023/05/18 10:18:35;;;;;;;3.10;2.90;;;17.50;99.90;;;;;;5089507;28;20995;-86
2023/05/18 10:21:02;;;;;;;3.07;2.80;;;17.50;99.90;;;;;;5090976;28;20456;-87
2023/05/18 10:23:35;;;;;;;3.80;3.50;;;17.60;99.90;;;;;;5092244;28;20456;-82
2023/05/18 10:26:05;;;;;;;3.40;2.90;;;17.70;99.90;;;;;;5090506;28;21000;-82
2023/05/18 10:28:41;;;;;;;3.50;3.20;;;17.70;99.90;;;;;;5091114;28;20467;-86
2023/05/18 10:31:07;;;;;;;3.20;3.00;;;17.80;99.90;;;;;;5074875;28;20465;-86
2023/05/18 10:33:35;;;;;;;3.40;3.10;;;17.90;99.90;;;;;;5086749;28;20520;-82
2023/05/18 10:36:03;;;;;;;3.20;3.00;;;18.00;99.90;;;;;;5086283;28;20992;-82
2023/05/18 10:38:30;;;;;;;3.50;3.20;;;18.00;99.90;;;;;;5087786;28;20473;-82
2023/05/18 10:40:59;;;;;;;3.50;3.20;;;18.10;99.90;;;;;;5084731;28;21264;-82
2023/05/18 10:43:26;;;;;;;4.27;3.93;;;18.00;99.90;;;;;;5086068;28;20508;-86
2023/05/18 10:45:57;;;;;;;3.13;2.93;;;18.00;99.90;;;;;;5090413;28;20444;-86
2023/05/18 10:48:24;;;;;;;3.60;3.30;;;18.10;99.90;;;;;;5083934;28;20433;-79
2023/05/18 10:50:52;;;;;;;3.60;3.20;;;18.10;99.90;;;;;;5085774;28;20464;-82
2023/05/18 10:53:19;;;;;;;4.97;3.73;;;18.20;99.90;;;;;;5086441;28;20447;-82
2023/05/18 10:55:48;;;;;;;4.70;3.70;;;18.30;99.90;;;;;;5080147;28;20461;-82
2023/05/18 10:58:22;;;;;;;3.97;3.60;;;18.40;99.90;;;;;;5090964;28;20521;-86
2023/05/18 11:00:55;;;;;;;4.43;3.20;;;18.40;99.90;;;;;;5112817;27;20472;-82
2023/05/18 11:03:21;;;;;;;3.87;3.57;;;18.40;99.90;;;;;;5085334;28;20504;-86
2023/05/18 11:06:04;;;;;;;3.50;3.30;;;18.40;99.90;;;;;;5087139;28;20471;-86
2023/05/18 11:08:30;;;;;;;3.90;3.60;;;18.30;99.90;;;;;;5117332;27;20410;-82
2023/05/18 11:11:03;;;;;;;4.07;3.70;;;18.30;99.90;;;;;;5081883;28;20805;-83
2023/05/18 11:13:31;;;;;;;4.47;3.93;;;18.20;99.90;;;;;;5087723;28;20418;-86
2023/05/18 11:15:58;;;;;;;4.00;3.70;;;18.30;99.90;;;;;;5084936;28;20489;-87
2023/05/18 11:18:44;;;;;;;5.20;4.70;;;18.40;99.90;;;;;;5087406;28;20461;-82
2023/05/18 11:21:35;;;;;;;4.57;4.10;;;18.40;99.90;;;;;;5086540;28;20961;-86
2023/05/18 11:24:20;;;;;;;4.30;4.00;;;18.40;99.90;;;;;;5084643;28;20429;-85
2023/05/18 11:26:47;;;;;;;4.93;4.53;;;18.50;99.90;;;;;;5090013;28;20454;-85
2023/05/18 11:29:31;;;;;;;4.10;3.80;;;18.50;99.90;;;;;;5084981;28;20497;-82
2023/05/18 11:31:57;;;;;;;4.00;3.70;;;18.30;99.90;;;;;;5084316;28;20477;-86
2023/05/18 11:34:44;;;;;;;3.57;3.37;;;18.40;99.90;;;;;;5085998;28;20434;-82
2023/05/18 11:37:15;;;;;;;3.63;3.33;;;18.60;99.90;;;;;;5086828;28;20449;-86
2023/05/18 11:39:51;;;;;;;6.43;3.67;;;18.60;99.90;;;;;;5084615;28;20883;-86
2023/05/18 11:42:19;;;;;;;3.33;3.13;;;18.60;99.90;;;;;;5084576;28;20492;-82
2023/05/18 11:44:55;;;;;;;4.40;4.00;;;18.70;99.90;;;;;;5084111;28;20442;-86
2023/05/18 11:47:22;;;;;;;3.80;3.50;;;18.70;99.90;;;;;;5086904;28;20447;-83
2023/05/18 11:49:51;;;;;;;3.63;3.40;;;18.70;99.90;;;;;;5083911;28;20421;-86
2023/05/18 11:52:22;;;;;;;4.13;3.73;;;18.70;99.90;;;;;;5078837;28;20798;-86
2023/05/18 11:54:52;;;;;;;4.00;3.53;;;18.70;99.90;;;;;;5095927;28;20484;-82
2023/05/18 11:57:33;;;;;;;4.37;3.40;;;18.70;99.90;;;;;;5077406;28;20518;-82
2023/05/18 12:00:00;;;;;;;3.83;3.43;;;18.70;99.90;;;;;;5073978;28;20454;-82
2023/05/18 12:02:29;;;;;;;3.87;3.60;;;18.80;99.90;;;;;;5069331;28;20466;-82
2023/05/18 12:05:01;;;;;;;4.67;4.13;;;18.80;99.90;;;;;;5077710;28;20460;-86
2023/05/18 12:07:34;;;;;;;3.30;3.10;;;18.90;99.90;;;;;;5077583;28;20437;-85
2023/05/18 12:10:05;;;;;;;3.40;3.20;;;18.90;99.90;;;;;;5083320;28;20461;-81
2023/05/18 12:12:32;;;;;;;3.80;3.50;;;19.00;99.90;;;;;;5073019;28;20439;-85
2023/05/18 12:15:06;;;;;;;3.93;3.53;;;19.10;99.90;;;;;;5080146;28;20447;-81
2023/05/18 12:17:46;;;;;;;3.53;3.30;;;19.10;99.90;;;;;;5104139;28;20471;-81
2023/05/18 12:20:12;;;;;;;3.30;3.07;;;19.20;99.90;;;;;;5081444;28;21196;-81
2023/05/18 12:22:40;;;;;;;4.00;3.60;;;19.30;99.90;;;;;;5081463;28;20504;-84
2023/05/18 12:25:06;;;;;;;4.23;3.83;;;19.40;99.90;;;;;;5080747;28;20505;-85
2023/05/18 12:27:38;;;;;;;3.20;2.67;;;19.40;99.90;;;;;;5089015;28;20429;-81
2023/05/18 12:30:05;;;;;;;4.03;3.70;;;19.50;99.90;;;;;;5088589;28;20463;-82
2023/05/18 12:32:30;;;;;;;3.80;3.10;;;19.50;99.90;;;;;;5070873;28;20430;-81
2023/05/18 12:34:57;;;;;;;4.63;3.20;;;19.50;99.90;;;;;;5081839;28;20497;-81
2023/05/18 12:37:25;;;;;;;3.63;3.33;;;19.50;99.90;;;;;;5093645;28;20194;-85
2023/05/18 12:39:52;;;;;;;3.37;3.17;;;19.60;99.90;;;;;;5092433;28;20596;-81
2023/05/18 12:42:18;;;;;;;3.60;3.40;;;19.60;99.90;;;;;;5085055;28;20435;-81
2023/05/18 12:44:44;;;;;;;3.40;3.10;;;19.70;99.90;;;;;;5081262;28;20960;-85
2023/05/18 12:47:12;;;;;;;3.40;3.20;;;19.70;99.90;;;;;;5079677;28;21126;-85
2023/05/18 12:49:39;;;;;;;2.90;2.70;;;19.70;99.90;;;;;;5084089;28;20424;-81